createdAt,value
2023-06-09T00:02:05.795Z,1.80
2023-06-09T00:07:08.473Z,1.50
2023-06-09T00:12:11.179Z,1.90
2023-06-09T00:17:15.622Z,1.90
2023-06-09T00:22:18.880Z,1.77
2023-06-09T00:27:21.105Z,1.70
2023-06-09T00:32:23.228Z,1.48
2023-06-09T00:37:25.167Z,1.70
2023-06-09T00:42:27.261Z,1.95
2023-06-09T00:47:29.658Z,1.58
2023-06-09T00:52:31.956Z,1.30
2023-06-09T00:57:35.621Z,1.63
2023-06-09T01:02:39.724Z,1.92
2023-06-09T01:07:56.718Z,1.88
2023-06-09T01:13:36.284Z,1.42
2023-06-09T01:18:43.733Z,1.38
2023-06-09T01:24:00.082Z,1.50
2023-06-09T01:29:02.698Z,1.48
2023-06-09T01:34:05.486Z,1.40
2023-06-09T01:39:09.252Z,1.65
2023-06-09T01:44:11.172Z,1.83
2023-06-09T01:49:22.032Z,1.85
2023-06-09T01:54:29.186Z,1.88
2023-06-09T01:59:39.369Z,1.48
2023-06-09T02:04:49.439Z,1.52
2023-06-09T02:09:54.217Z,1.10
2023-06-09T02:14:56.211Z,1.80
2023-06-09T02:19:58.274Z,1.25
2023-06-09T02:25:00.526Z,1.42
2023-06-09T02:30:02.566Z,1.42
2023-06-09T02:35:06.440Z,1.38
2023-06-09T02:40:10.334Z,1.20
2023-06-09T02:45:13.489Z,1.20
2023-06-09T02:50:15.470Z,1.52
2023-06-09T02:55:20.004Z,1.50
2023-06-09T03:00:21.913Z,1.70
2023-06-09T03:05:26.383Z,1.50
2023-06-09T03:10:28.647Z,1.45
2023-06-09T03:15:30.921Z,1.40
2023-06-09T03:20:34.182Z,1.60
2023-06-09T03:25:37.347Z,1.50
2023-06-09T03:30:39.660Z,1.30
2023-06-09T03:35:41.620Z,2.17
2023-06-09T03:40:43.640Z,1.48
2023-06-09T03:45:45.872Z,1.55
2023-06-09T03:50:48.034Z,1.60
2023-06-09T03:55:50.161Z,1.60
2023-06-09T04:00:53.011Z,1.45
2023-06-09T04:05:55.314Z,1.83
2023-06-09T04:10:57.297Z,2.13
2023-06-09T04:15:59.389Z,1.60
2023-06-09T04:21:01.507Z,2.03
2023-06-09T04:26:03.649Z,1.67
2023-06-09T04:31:08.181Z,1.33
2023-06-09T04:36:10.132Z,2.35
2023-06-09T04:41:13.206Z,1.90
2023-06-09T04:46:15.417Z,1.80
2023-06-09T04:51:18.449Z,2.13
2023-06-09T04:56:21.217Z,1.60
2023-06-09T05:01:24.635Z,1.52
2023-06-09T05:06:26.905Z,2.10
2023-06-09T05:11:29.070Z,1.40
2023-06-09T05:16:31.491Z,1.75
2023-06-09T05:21:33.611Z,1.30
2023-06-09T05:26:35.923Z,2.38
2023-06-09T05:31:37.995Z,1.77
2023-06-09T05:36:40.120Z,1.63
2023-06-09T05:41:42.480Z,1.70
2023-06-09T05:46:44.401Z,1.25
2023-06-09T05:51:46.342Z,1.40
2023-06-09T05:56:50.418Z,1.75
2023-06-09T06:01:53.549Z,1.30
2023-06-09T06:06:55.683Z,1.23
2023-06-09T06:11:57.740Z,1.15
2023-06-09T06:16:59.774Z,1.20
2023-06-09T06:22:01.897Z,2.42
2023-06-09T06:27:04.246Z,2.28
2023-06-09T06:32:07.769Z,2.00
2023-06-09T06:37:09.699Z,1.88
2023-06-09T06:42:12.030Z,1.90
2023-06-09T06:47:14.175Z,2.35
2023-06-09T06:52:16.244Z,2.30
2023-06-09T06:57:18.146Z,2.47
2023-06-09T07:02:20.116Z,2.90
2023-06-09T07:07:24.115Z,2.72
2023-06-09T07:12:26.439Z,3.10
2023-06-09T07:17:28.913Z,3.17
2023-06-09T07:22:31.071Z,2.65
2023-06-09T07:27:33.285Z,3.33
2023-06-09T07:32:35.386Z,3.17
2023-06-09T07:37:40.340Z,2.00
2023-06-09T07:42:42.233Z,2.70
2023-06-09T07:47:44.342Z,1.80
2023-06-09T07:52:46.519Z,2.42
2023-06-09T07:57:48.718Z,2.28
2023-06-09T08:02:52.115Z,2.22
2023-06-09T08:07:54.464Z,2.22
2023-06-09T08:12:56.576Z,2.85
2023-06-09T08:17:58.661Z,2.25
2023-06-09T08:23:00.878Z,2.03
2023-06-09T08:28:03.217Z,2.30
2023-06-09T08:33:06.381Z,1.95
2023-06-09T08:38:08.316Z,2.08
2023-06-09T08:43:11.266Z,2.33
2023-06-09T08:48:17.864Z,1.98
2023-06-09T08:53:20.955Z,2.20
2023-06-09T08:58:23.689Z,2.70
2023-06-09T09:03:25.729Z,1.67
2023-06-09T09:08:27.775Z,2.10
2023-06-09T09:13:33.355Z,1.98
2023-06-09T09:18:38.432Z,2.22
2023-06-09T09:23:40.537Z,2.42
2023-06-09T09:28:44.182Z,2.50
2023-06-09T09:33:50.006Z,1.88
2023-06-09T09:38:52.023Z,1.92
2023-06-09T09:43:58.222Z,2.20
2023-06-09T09:49:01.694Z,2.20
2023-06-09T09:54:04.900Z,2.00
2023-06-09T09:59:08.274Z,1.73
2023-06-09T10:04:10.922Z,1.73
2023-06-09T10:09:13.777Z,2.42
2023-06-09T10:14:16.713Z,1.63
2023-06-09T10:19:19.874Z,2.47
2023-06-09T10:24:22.755Z,1.58
2023-06-09T10:29:26.558Z,1.85
2023-06-09T10:34:29.456Z,1.70
2023-06-09T10:39:57.292Z,1.92
2023-06-09T10:45:16.019Z,1.38
2023-06-09T10:50:24.816Z,1.60
2023-06-09T10:55:31.690Z,1.67
2023-06-09T11:01:06.713Z,2.05
2023-06-09T11:06:09.581Z,2.05
2023-06-09T11:11:16.913Z,2.10
2023-06-09T11:16:19.145Z,1.80
2023-06-09T11:21:21.836Z,1.98
2023-06-09T11:26:25.011Z,1.35
2023-06-09T11:31:28.495Z,1.85
2023-06-09T11:36:31.952Z,1.63
2023-06-09T11:41:35.057Z,1.60
2023-06-09T11:46:37.088Z,1.67
2023-06-09T11:52:02.615Z,1.63
2023-06-09T11:57:05.013Z,1.55
2023-06-09T12:02:07.815Z,1.92
2023-06-09T12:07:16.887Z,2.08
2023-06-09T12:12:19.224Z,1.90
2023-06-09T12:17:21.570Z,1.80
2023-06-09T12:22:24.038Z,1.60
2023-06-09T12:27:26.169Z,1.55
2023-06-09T12:32:28.329Z,2.03
2023-06-09T12:37:37.989Z,1.98
2023-06-09T12:42:47.858Z,1.63
2023-06-09T12:47:50.840Z,1.70
2023-06-09T12:52:52.884Z,1.90
2023-06-09T12:57:55.140Z,1.95
2023-06-09T13:03:00.028Z,2.17
2023-06-09T13:08:05.621Z,1.20
2023-06-09T13:13:07.776Z,1.90
2023-06-09T13:18:15.834Z,1.70
2023-06-09T13:23:17.875Z,1.80
2023-06-09T13:28:20.612Z,1.63
2023-06-09T13:33:22.511Z,1.42
2023-06-09T13:38:24.491Z,1.52
2023-06-09T13:43:27.690Z,2.00
2023-06-09T13:48:29.864Z,1.60
2023-06-09T13:53:31.998Z,1.55
2023-06-09T13:58:36.845Z,1.70
2023-06-09T14:03:39.540Z,2.25
2023-06-09T14:08:41.606Z,2.15
2023-06-09T14:13:43.667Z,2.13
2023-06-09T14:18:45.974Z,2.05
2023-06-09T14:23:48.064Z,2.25
2023-06-09T14:28:50.126Z,1.85
2023-06-09T14:33:52.083Z,2.00
2023-06-09T14:38:54.095Z,1.60
2023-06-09T14:43:56.216Z,2.05
2023-06-09T14:48:58.452Z,1.83
2023-06-09T14:54:00.381Z,2.00
2023-06-09T14:59:04.695Z,1.73
2023-06-09T15:04:06.764Z,1.70
2023-06-09T15:09:08.795Z,2.17
2023-06-09T15:14:10.790Z,1.80
2023-06-09T15:19:13.705Z,2.17
2023-06-09T15:24:15.854Z,2.10
2023-06-09T15:29:18.059Z,2.22
2023-06-09T15:34:20.081Z,1.85
2023-06-09T15:39:22.092Z,2.20
2023-06-09T15:44:24.005Z,2.17
2023-06-09T15:49:26.027Z,1.52
2023-06-09T15:54:30.682Z,1.98
2023-06-09T15:59:33.340Z,2.10
2023-06-09T16:04:35.365Z,1.70
2023-06-09T16:09:37.367Z,1.45
2023-06-09T16:14:39.328Z,1.30
2023-06-09T16:19:41.284Z,2.05
2023-06-09T16:24:43.371Z,1.63
2023-06-09T16:29:47.721Z,1.85
2023-06-09T16:34:49.605Z,2.08
2023-06-09T16:39:51.595Z,1.63
2023-06-09T16:44:54.252Z,2.13
2023-06-09T16:49:56.269Z,1.67
2023-06-09T16:54:58.198Z,2.00
2023-06-09T17:00:00.292Z,1.67
2023-06-09T17:05:02.408Z,1.80
2023-06-09T17:10:04.823Z,1.65
2023-06-09T17:15:08.467Z,1.52
2023-06-09T17:20:11.331Z,1.70
2023-06-09T17:25:13.590Z,1.52
2023-06-09T17:30:16.470Z,1.90
2023-06-09T17:35:18.973Z,1.50
2023-06-09T17:40:21.529Z,2.08
2023-06-09T17:45:23.728Z,1.60
2023-06-09T17:50:25.753Z,1.83
2023-06-09T17:55:27.954Z,1.77
2023-06-09T18:00:30.034Z,2.20
2023-06-09T18:05:32.309Z,2.08
2023-06-09T18:10:34.607Z,2.45
2023-06-09T18:15:37.105Z,2.13
2023-06-09T18:20:39.232Z,2.15
2023-06-09T18:25:41.282Z,1.90
2023-06-09T18:30:44.658Z,2.35
2023-06-09T18:35:46.825Z,2.33
2023-06-09T18:40:48.703Z,2.15
2023-06-09T18:45:50.866Z,2.00
2023-06-09T18:50:53.627Z,2.00
2023-06-09T18:55:55.577Z,2.03
2023-06-09T19:00:57.771Z,2.25
2023-06-09T19:06:00.562Z,2.47
2023-06-09T19:11:02.920Z,1.75
2023-06-09T19:16:05.075Z,2.65
2023-06-09T19:21:07.100Z,2.40
2023-06-09T19:26:09.442Z,2.55
2023-06-09T19:31:11.656Z,2.65
2023-06-09T19:36:14.255Z,2.35
2023-06-09T19:41:16.125Z,2.60
2023-06-09T19:46:18.155Z,2.45
2023-06-09T19:51:20.141Z,2.90
2023-06-09T19:56:22.356Z,3.15
2023-06-09T20:01:24.362Z,2.42
2023-06-09T20:06:26.388Z,3.08
2023-06-09T20:11:28.403Z,2.90
2023-06-09T20:16:30.575Z,2.90
2023-06-09T20:21:35.604Z,3.00
2023-06-09T20:26:39.520Z,2.70
2023-06-09T20:31:41.640Z,3.40
2023-06-09T20:36:44.654Z,2.53
2023-06-09T20:41:46.931Z,2.88
2023-06-09T20:46:49.001Z,3.88
2023-06-09T20:51:51.186Z,2.50
2023-06-09T20:56:53.337Z,3.35
2023-06-09T21:01:56.066Z,2.40
2023-06-09T21:06:58.127Z,3.67
2023-06-09T21:12:00.056Z,2.80
2023-06-09T21:17:02.097Z,2.63
2023-06-09T21:22:04.291Z,2.60
2023-06-09T21:27:06.985Z,2.55
2023-06-09T21:32:09.088Z,3.28
2023-06-09T21:37:11.262Z,2.83
2023-06-09T21:42:13.762Z,2.75
2023-06-09T21:47:16.052Z,2.45
2023-06-09T21:52:18.101Z,2.83
2023-06-09T21:57:20.163Z,3.10
2023-06-09T22:02:22.207Z,2.70
2023-06-09T22:07:24.197Z,2.88
2023-06-09T22:12:34.068Z,3.50
2023-06-09T22:17:36.947Z,3.03
2023-06-09T22:22:39.155Z,3.00
2023-06-09T22:27:41.251Z,2.47
2023-06-09T22:32:43.267Z,3.13
2023-06-09T22:37:45.486Z,3.60
2023-06-09T22:42:47.376Z,3.45
2023-06-09T22:47:50.301Z,2.67
2023-06-09T22:52:52.598Z,2.75
2023-06-09T22:57:54.718Z,3.50
2023-06-09T23:02:57.105Z,3.40
2023-06-09T23:07:59.241Z,2.85
2023-06-09T23:13:01.398Z,3.53
2023-06-09T23:18:04.225Z,3.28
2023-06-09T23:23:06.815Z,4.07
2023-06-09T23:28:09.066Z,4.00
2023-06-09T23:33:14.048Z,2.97
2023-06-09T23:38:16.235Z,3.20
2023-06-09T23:43:18.422Z,3.80
2023-06-09T23:48:21.279Z,3.55
2023-06-09T23:53:24.926Z,3.28
2023-06-09T23:58:27.130Z,3.95
